createdAt,value
2023-04-07T00:00:33.302Z,95097.00
2023-04-07T00:01:33.334Z,95097.00
2023-04-07T00:02:33.350Z,95095.00
2023-04-07T00:03:33.495Z,95095.00
2023-04-07T00:04:33.510Z,95095.00
2023-04-07T00:05:33.402Z,95095.00
2023-04-07T00:06:33.478Z,95091.00
2023-04-07T00:07:37.210Z,95095.00
2023-04-07T00:08:34.484Z,95093.00
2023-04-07T00:09:33.490Z,95095.00
2023-04-07T00:10:33.483Z,95093.00
2023-04-07T00:11:33.483Z,95093.00
2023-04-07T00:12:33.490Z,95091.00
2023-04-07T00:13:33.496Z,95095.00
2023-04-07T00:14:33.461Z,95093.00
2023-04-07T00:15:33.566Z,95097.00
2023-04-07T00:16:34.040Z,95097.00
2023-04-07T00:17:33.536Z,95097.00
2023-04-07T00:18:33.515Z,95095.00
2023-04-07T00:19:33.517Z,95093.00
2023-04-07T00:20:33.488Z,95093.00
2023-04-07T00:21:33.519Z,95093.00
2023-04-07T00:22:33.513Z,95091.00
2023-04-07T00:23:33.491Z,95089.00
2023-04-07T00:24:34.707Z,95089.00
2023-04-07T00:25:33.522Z,95089.00
2023-04-07T00:26:33.506Z,95089.00
2023-04-07T00:27:33.532Z,95085.00
2023-04-07T00:28:33.532Z,95087.00
2023-04-07T00:29:33.618Z,95083.00
2023-04-07T00:30:33.620Z,95083.00
2023-04-07T00:31:33.684Z,95085.00
2023-04-07T00:32:34.633Z,95083.00
2023-04-07T00:33:33.695Z,95083.00
2023-04-07T00:34:33.694Z,95081.00
2023-04-07T00:35:33.770Z,95083.00
2023-04-07T00:36:33.771Z,95081.00
2023-04-07T00:37:33.821Z,95079.00
2023-04-07T00:38:33.837Z,95077.00
2023-04-07T00:39:33.866Z,95077.00
2023-04-07T00:40:33.910Z,95077.00
2023-04-07T00:41:33.932Z,95074.00
2023-04-07T00:42:33.963Z,95074.00
2023-04-07T00:43:33.955Z,95072.00
2023-04-07T00:44:34.014Z,95072.00
2023-04-07T00:45:34.051Z,95070.00
2023-04-07T00:46:34.120Z,95064.00
2023-04-07T00:47:34.168Z,95064.00
2023-04-07T00:48:34.196Z,95064.00
2023-04-07T00:49:34.226Z,95060.00
2023-04-07T00:50:34.262Z,95060.00
2023-04-07T00:51:34.280Z,95060.00
2023-04-07T00:52:34.319Z,95060.00
2023-04-07T00:53:34.346Z,95058.00
2023-04-07T00:54:34.359Z,95058.00
2023-04-07T00:55:34.411Z,95058.00
2023-04-07T00:56:34.446Z,95056.00
2023-04-07T00:57:34.508Z,95056.00
2023-04-07T00:58:34.512Z,95054.00
2023-04-07T00:59:34.625Z,95056.00
2023-04-07T01:00:34.594Z,95054.00
2023-04-07T01:01:34.712Z,95054.00
2023-04-07T01:02:34.853Z,95052.00
2023-04-07T01:03:35.026Z,95050.00
2023-04-07T01:04:34.858Z,95048.00
2023-04-07T01:05:34.791Z,95052.00
2023-04-07T01:06:34.818Z,95048.00
2023-04-07T01:07:34.876Z,95046.00
2023-04-07T01:08:34.913Z,95048.00
2023-04-07T01:09:34.941Z,95048.00
2023-04-07T01:10:35.007Z,95046.00
2023-04-07T01:11:35.053Z,95046.00
2023-04-07T01:12:35.093Z,95044.00
2023-04-07T01:13:35.140Z,95046.00
2023-04-07T01:14:35.151Z,95044.00
2023-04-07T01:15:35.180Z,95044.00
2023-04-07T01:16:35.352Z,95044.00
2023-04-07T01:17:35.288Z,95042.00
2023-04-07T01:18:35.285Z,95044.00
2023-04-07T01:19:35.334Z,95042.00
2023-04-07T01:20:35.352Z,95042.00
2023-04-07T01:21:35.435Z,95042.00
2023-04-07T01:22:35.449Z,95040.00
2023-04-07T01:23:35.464Z,95042.00
2023-04-07T01:24:35.520Z,95042.00
2023-04-07T01:25:35.554Z,95042.00
2023-04-07T01:26:35.638Z,95040.00
2023-04-07T01:27:35.628Z,95040.00
2023-04-07T01:28:35.657Z,95040.00
2023-04-07T01:29:35.722Z,95040.00
2023-04-07T01:30:35.750Z,95040.00
2023-04-07T01:31:35.838Z,95044.00
2023-04-07T01:32:35.831Z,95044.00
2023-04-07T01:33:37.682Z,95044.00
2023-04-07T01:34:35.885Z,95044.00
2023-04-07T01:35:35.986Z,95046.00
2023-04-07T01:36:36.040Z,95046.00
2023-04-07T01:37:36.019Z,95046.00
2023-04-07T01:38:36.049Z,95050.00
2023-04-07T01:39:36.083Z,95050.00
2023-04-07T01:40:36.146Z,95050.00
2023-04-07T01:41:36.165Z,95052.00
2023-04-07T01:42:36.248Z,95050.00
2023-04-07T01:43:36.308Z,95054.00
2023-04-07T01:44:36.347Z,95052.00
2023-04-07T01:45:36.375Z,95054.00
2023-04-07T01:46:36.432Z,95050.00
2023-04-07T01:47:36.563Z,95050.00
2023-04-07T01:48:36.475Z,95048.00
2023-04-07T01:49:36.497Z,95048.00
2023-04-07T01:50:36.578Z,95050.00
2023-04-07T01:51:36.571Z,95050.00
2023-04-07T01:52:36.658Z,95050.00
2023-04-07T01:53:36.668Z,95048.00
2023-04-07T01:54:36.712Z,95050.00
2023-04-07T01:55:36.718Z,95048.00
2023-04-07T01:56:36.750Z,95044.00
2023-04-07T01:57:36.822Z,95044.00
2023-04-07T01:58:36.851Z,95044.00
2023-04-07T01:59:36.878Z,95044.00
2023-04-07T02:00:36.929Z,95044.00
2023-04-07T02:01:37.103Z,95044.00
2023-04-07T02:02:37.137Z,95046.00
2023-04-07T02:03:37.168Z,95048.00
2023-04-07T02:04:37.084Z,95044.00
2023-04-07T02:05:37.131Z,95042.00
2023-04-07T02:06:37.168Z,95040.00
2023-04-07T02:07:37.226Z,95040.00
2023-04-07T02:08:37.271Z,95040.00
2023-04-07T02:09:37.268Z,95040.00
2023-04-07T02:10:37.315Z,95040.00
2023-04-07T02:11:37.353Z,95040.00
2023-04-07T02:12:37.388Z,95040.00
2023-04-07T02:13:37.476Z,95042.00
2023-04-07T02:14:37.468Z,95040.00
2023-04-07T02:15:37.545Z,95040.00
2023-04-07T02:16:37.628Z,95038.00
2023-04-07T02:17:37.580Z,95034.00
2023-04-07T02:18:37.576Z,95034.00
2023-04-07T02:19:37.598Z,95034.00
2023-04-07T02:20:37.642Z,95036.00
2023-04-07T02:21:37.666Z,95036.00
2023-04-07T02:22:37.709Z,95038.00
2023-04-07T02:23:37.761Z,95038.00
2023-04-07T02:24:37.813Z,95040.00
2023-04-07T02:25:37.838Z,95040.00
2023-04-07T02:26:37.888Z,95040.00
2023-04-07T02:27:37.912Z,95038.00
2023-04-07T02:28:37.977Z,95038.00
2023-04-07T02:29:38.033Z,95036.00
2023-04-07T02:30:38.009Z,95034.00
2023-04-07T02:31:38.146Z,95034.00
2023-04-07T02:32:38.179Z,95034.00
2023-04-07T02:33:38.188Z,95034.00
2023-04-07T02:34:38.246Z,95034.00
2023-04-07T02:35:38.322Z,95034.00
2023-04-07T02:36:38.377Z,95032.00
2023-04-07T02:37:38.421Z,95030.00
2023-04-07T02:38:38.411Z,95028.00
2023-04-07T02:39:38.462Z,95027.00
2023-04-07T02:40:38.494Z,95027.00
2023-04-07T02:41:38.559Z,95025.00
2023-04-07T02:42:38.574Z,95023.00
2023-04-07T02:43:38.643Z,95021.00
2023-04-07T02:44:38.673Z,95023.00
2023-04-07T02:45:38.775Z,95021.00
2023-04-07T02:46:38.782Z,95021.00
2023-04-07T02:47:38.870Z,95019.00
2023-04-07T02:48:38.837Z,95021.00
2023-04-07T02:49:38.876Z,95019.00
2023-04-07T02:50:38.920Z,95013.00
2023-04-07T02:51:38.960Z,95013.00
2023-04-07T02:52:39.029Z,95011.00
2023-04-07T02:53:39.045Z,95013.00
2023-04-07T02:54:39.121Z,95011.00
2023-04-07T02:55:39.115Z,95011.00
2023-04-07T02:56:39.175Z,95013.00
2023-04-07T02:57:39.199Z,95009.00
2023-04-07T02:58:39.258Z,95013.00
2023-04-07T02:59:39.274Z,95007.00
2023-04-07T03:00:39.320Z,95011.00
2023-04-07T03:01:39.464Z,95009.00
2023-04-07T03:02:39.558Z,95007.00
2023-04-07T03:03:39.609Z,95001.00
2023-04-07T03:04:39.477Z,95007.00
2023-04-07T03:05:39.466Z,95007.00
2023-04-07T03:06:39.525Z,95007.00
2023-04-07T03:07:39.568Z,95003.00
2023-04-07T03:08:39.608Z,95009.00
2023-04-07T03:09:39.648Z,95007.00
2023-04-07T03:10:39.676Z,95007.00
2023-04-07T03:11:39.713Z,95009.00
2023-04-07T03:12:39.745Z,95007.00
2023-04-07T03:13:39.802Z,95001.00
2023-04-07T03:14:39.830Z,95007.00
2023-04-07T03:15:39.892Z,95007.00
2023-04-07T03:16:39.939Z,95007.00
2023-04-07T03:17:40.011Z,95005.00
2023-04-07T03:18:39.964Z,94999.00
2023-04-07T03:19:40.047Z,94999.00
2023-04-07T03:20:40.070Z,95005.00
2023-04-07T03:21:40.117Z,94999.00
2023-04-07T03:22:40.127Z,94997.00
2023-04-07T03:23:40.172Z,94999.00
2023-04-07T03:24:40.192Z,95001.00
2023-04-07T03:25:40.255Z,95001.00
2023-04-07T03:26:40.339Z,95005.00
2023-04-07T03:27:40.327Z,95003.00
2023-04-07T03:28:40.364Z,95005.00
2023-04-07T03:29:40.410Z,94999.00
2023-04-07T03:30:40.463Z,95005.00
2023-04-07T03:31:40.488Z,94999.00
2023-04-07T03:32:40.544Z,94997.00
2023-04-07T03:33:40.554Z,94995.00
2023-04-07T03:34:40.597Z,94995.00
2023-04-07T03:35:40.652Z,94993.00
2023-04-07T03:36:40.692Z,94997.00
2023-04-07T03:37:40.738Z,94995.00
2023-04-07T03:38:40.782Z,94995.00
2023-04-07T03:39:40.833Z,94995.00
2023-04-07T03:40:40.844Z,94995.00
2023-04-07T03:41:40.896Z,94987.00
2023-04-07T03:42:40.927Z,94989.00
2023-04-07T03:43:40.934Z,94987.00
2023-04-07T03:44:41.002Z,94987.00
2023-04-07T03:45:41.041Z,94985.00
2023-04-07T03:46:41.173Z,94989.00
2023-04-07T03:47:41.159Z,94989.00
2023-04-07T03:48:41.171Z,94983.00
2023-04-07T03:49:41.201Z,94989.00
2023-04-07T03:50:41.255Z,94983.00
2023-04-07T03:51:41.288Z,94989.00
2023-04-07T03:52:41.315Z,94983.00
2023-04-07T03:53:41.374Z,94983.00
2023-04-07T03:54:41.396Z,94989.00
2023-04-07T03:55:41.456Z,94985.00
2023-04-07T03:56:41.484Z,94983.00
2023-04-07T03:57:41.572Z,94985.00
2023-04-07T03:58:41.562Z,94983.00
2023-04-07T03:59:41.650Z,94985.00
2023-04-07T04:00:41.647Z,94985.00
2023-04-07T04:01:41.689Z,94985.00
2023-04-07T04:02:41.732Z,94987.00
2023-04-07T04:03:41.827Z,94985.00
2023-04-07T04:04:41.861Z,94985.00
2023-04-07T04:05:41.823Z,94983.00
2023-04-07T04:06:41.878Z,94983.00
2023-04-07T04:07:41.891Z,94983.00
2023-04-07T04:08:41.930Z,94985.00
2023-04-07T04:09:42.025Z,94985.00
2023-04-07T04:10:42.065Z,94987.00
2023-04-07T04:11:42.084Z,94987.00
2023-04-07T04:12:42.133Z,94985.00
2023-04-07T04:13:42.177Z,94985.00
2023-04-07T04:14:42.213Z,94985.00
2023-04-07T04:15:42.270Z,94983.00
2023-04-07T04:16:42.264Z,94981.00
2023-04-07T04:17:42.363Z,94981.00
2023-04-07T04:18:42.384Z,94981.00
2023-04-07T04:19:42.418Z,94979.00
2023-04-07T04:20:42.440Z,94977.00
2023-04-07T04:21:42.505Z,94979.00
2023-04-07T04:22:42.523Z,94981.00
2023-04-07T04:23:42.580Z,94979.00
2023-04-07T04:24:42.630Z,94977.00
2023-04-07T04:25:42.636Z,94977.00
2023-04-07T04:26:42.705Z,94977.00
2023-04-07T04:27:42.724Z,94977.00
2023-04-07T04:28:42.770Z,94977.00
2023-04-07T04:29:42.810Z,94977.00
2023-04-07T04:30:42.827Z,94977.00
2023-04-07T04:31:43.031Z,94977.00
2023-04-07T04:32:42.982Z,94973.00
2023-04-07T04:33:42.956Z,94973.00
2023-04-07T04:34:43.007Z,94972.00
2023-04-07T04:35:43.033Z,94972.00
2023-04-07T04:36:43.112Z,94970.00
2023-04-07T04:37:43.120Z,94970.00
2023-04-07T04:38:43.152Z,94975.00
2023-04-07T04:39:43.178Z,94973.00
2023-04-07T04:40:43.224Z,94973.00
2023-04-07T04:41:43.288Z,94972.00
2023-04-07T04:42:43.324Z,94972.00
2023-04-07T04:43:43.369Z,94972.00
2023-04-07T04:44:43.405Z,94972.00
2023-04-07T04:45:43.446Z,94972.00
2023-04-07T04:46:43.461Z,94970.00
2023-04-07T04:47:43.526Z,94972.00
2023-04-07T04:48:43.534Z,94970.00
2023-04-07T04:49:43.576Z,94970.00
2023-04-07T04:50:43.587Z,94970.00
2023-04-07T04:51:43.661Z,94968.00
2023-04-07T04:52:43.632Z,94970.00
2023-04-07T04:53:43.670Z,94970.00
2023-04-07T04:54:43.713Z,94970.00
2023-04-07T04:55:43.715Z,94972.00
2023-04-07T04:56:43.798Z,94970.00
2023-04-07T04:57:43.809Z,94968.00
2023-04-07T04:58:43.787Z,94968.00
2023-04-07T04:59:43.819Z,94970.00
2023-04-07T05:00:43.897Z,94970.00
2023-04-07T05:01:51.573Z,94968.00
2023-04-07T05:02:44.109Z,94964.00
2023-04-07T05:03:44.031Z,94966.00
2023-04-07T05:04:44.055Z,94964.00
2023-04-07T05:05:43.964Z,94966.00
2023-04-07T05:06:43.987Z,94964.00
2023-04-07T05:07:43.992Z,94964.00
2023-04-07T05:08:43.986Z,94966.00
2023-04-07T05:09:43.976Z,94966.00
2023-04-07T05:10:44.559Z,94964.00
2023-04-07T05:11:44.011Z,94964.00
2023-04-07T05:12:44.000Z,94960.00
2023-04-07T05:13:44.030Z,94964.00
2023-04-07T05:14:44.040Z,94962.00
2023-04-07T05:15:44.045Z,94962.00
2023-04-07T05:16:44.323Z,94962.00
2023-04-07T05:17:44.066Z,94960.00
2023-04-07T05:18:44.040Z,94962.00
2023-04-07T05:19:44.054Z,94960.00
2023-04-07T05:20:44.074Z,94960.00
2023-04-07T05:21:44.079Z,94956.00
2023-04-07T05:22:44.088Z,94964.00
2023-04-07T05:23:44.097Z,94962.00
2023-04-07T05:24:44.104Z,94962.00
2023-04-07T05:25:44.109Z,94962.00
2023-04-07T05:26:44.095Z,94964.00
2023-04-07T05:27:44.119Z,94964.00
2023-04-07T05:28:44.083Z,94964.00
2023-04-07T05:29:44.097Z,94966.00
2023-04-07T05:30:44.103Z,94964.00
2023-04-07T05:31:44.139Z,94964.00
2023-04-07T05:32:44.118Z,94962.00
2023-04-07T05:33:44.141Z,94964.00
2023-04-07T05:34:44.144Z,94962.00
2023-04-07T05:35:44.156Z,94960.00
2023-04-07T05:36:44.188Z,94962.00
2023-04-07T05:37:44.204Z,94962.00
2023-04-07T05:38:44.206Z,94964.00
2023-04-07T05:39:44.264Z,94964.00
2023-04-07T05:40:44.262Z,94962.00
2023-04-07T05:41:44.306Z,94962.00
2023-04-07T05:42:44.323Z,94962.00
2023-04-07T05:43:44.344Z,94960.00
2023-04-07T05:44:44.343Z,94962.00
2023-04-07T05:45:44.466Z,94962.00
2023-04-07T05:46:51.458Z,94960.00
2023-04-07T05:47:44.436Z,94960.00
2023-04-07T05:48:44.464Z,94962.00
2023-04-07T05:49:44.431Z,94960.00
2023-04-07T05:50:44.470Z,94962.00
2023-04-07T05:51:45.124Z,94966.00
2023-04-07T05:52:44.505Z,94966.00
2023-04-07T05:53:44.474Z,94966.00
2023-04-07T05:54:44.517Z,94964.00
2023-04-07T05:55:44.494Z,94964.00
2023-04-07T05:56:44.544Z,94962.00
2023-04-07T05:57:44.539Z,94968.00
2023-04-07T05:58:44.497Z,94966.00
2023-04-07T05:59:44.505Z,94970.00
2023-04-07T06:00:44.514Z,94970.00
2023-04-07T06:01:44.616Z,94972.00
2023-04-07T06:02:44.624Z,94970.00
2023-04-07T06:03:45.550Z,94968.00
2023-04-07T06:04:44.566Z,94968.00
2023-04-07T06:05:44.569Z,94968.00
2023-04-07T06:06:44.548Z,94966.00
2023-04-07T06:07:44.558Z,94970.00
2023-04-07T06:08:44.571Z,94968.00
2023-04-07T06:09:44.559Z,94968.00
2023-04-07T06:10:44.585Z,94968.00
2023-04-07T06:11:44.586Z,94968.00
2023-04-07T06:12:44.577Z,94966.00
2023-04-07T06:13:44.563Z,94966.00
2023-04-07T06:14:44.565Z,94966.00
2023-04-07T06:15:44.580Z,94966.00
2023-04-07T06:16:44.669Z,94968.00
2023-04-07T06:17:44.590Z,94968.00
2023-04-07T06:18:44.593Z,94970.00
2023-04-07T06:19:44.572Z,94970.00
2023-04-07T06:20:44.573Z,94970.00
2023-04-07T06:21:44.560Z,94970.00
2023-04-07T06:22:44.563Z,94970.00
2023-04-07T06:23:44.586Z,94968.00
2023-04-07T06:24:44.560Z,94970.00
2023-04-07T06:25:44.569Z,94970.00
2023-04-07T06:26:44.592Z,94970.00
2023-04-07T06:27:44.604Z,94970.00
2023-04-07T06:28:44.593Z,94970.00
2023-04-07T06:29:44.572Z,94970.00
2023-04-07T06:30:44.669Z,94970.00
2023-04-07T06:31:44.647Z,94973.00
2023-04-07T06:32:44.630Z,94972.00
2023-04-07T06:33:44.604Z,94970.00
2023-04-07T06:34:44.589Z,94972.00
2023-04-07T06:35:44.617Z,94968.00
2023-04-07T06:36:45.322Z,94972.00
2023-04-07T06:37:44.633Z,94970.00
2023-04-07T06:38:44.612Z,94968.00
2023-04-07T06:39:44.634Z,94966.00
2023-04-07T06:40:44.639Z,94968.00
2023-04-07T06:41:44.640Z,94966.00
2023-04-07T06:42:44.586Z,94966.00
2023-04-07T06:43:44.599Z,94966.00
2023-04-07T06:44:44.607Z,94964.00
2023-04-07T06:45:44.655Z,94960.00
2023-04-07T06:46:44.700Z,94960.00
2023-04-07T06:47:44.662Z,94962.00
2023-04-07T06:48:44.629Z,94960.00
2023-04-07T06:49:44.656Z,94960.00
2023-04-07T06:50:44.640Z,94962.00
2023-04-07T06:51:44.651Z,94962.00
2023-04-07T06:52:44.646Z,94964.00
2023-04-07T06:53:44.663Z,94962.00
2023-04-07T06:54:44.819Z,94960.00
2023-04-07T06:55:44.704Z,94960.00
2023-04-07T06:56:44.753Z,94958.00
2023-04-07T06:57:44.776Z,94956.00
2023-04-07T06:58:44.743Z,94960.00
2023-04-07T06:59:44.723Z,94962.00
2023-04-07T07:00:44.725Z,94962.00
2023-04-07T07:01:44.835Z,94960.00
2023-04-07T07:02:44.967Z,94960.00
2023-04-07T07:03:44.874Z,94962.00
2023-04-07T07:04:44.777Z,94962.00
2023-04-07T07:05:44.825Z,94960.00
2023-04-07T07:06:44.774Z,94958.00
2023-04-07T07:07:44.785Z,94960.00
2023-04-07T07:08:44.782Z,94958.00
2023-04-07T07:09:44.775Z,94960.00
2023-04-07T07:10:44.794Z,94956.00
2023-04-07T07:11:44.822Z,94956.00
2023-04-07T07:12:44.874Z,94956.00
2023-04-07T07:13:44.844Z,94956.00
2023-04-07T07:14:44.851Z,94954.00
2023-04-07T07:15:44.866Z,94952.00
2023-04-07T07:16:44.905Z,94956.00
2023-04-07T07:17:44.932Z,94954.00
2023-04-07T07:18:44.916Z,94950.00
2023-04-07T07:19:44.966Z,94950.00
2023-04-07T07:20:44.938Z,94950.00
2023-04-07T07:21:44.974Z,94948.00
2023-04-07T07:22:44.988Z,94948.00
2023-04-07T07:23:45.229Z,94952.00
2023-04-07T07:24:45.049Z,94950.00
2023-04-07T07:25:45.071Z,94950.00
2023-04-07T07:26:45.184Z,94948.00
2023-04-07T07:27:45.113Z,94950.00
2023-04-07T07:28:45.094Z,94950.00
2023-04-07T07:29:45.129Z,94946.00
2023-04-07T07:30:45.168Z,94950.00
2023-04-07T07:31:45.151Z,94948.00
2023-04-07T07:32:45.188Z,94948.00
2023-04-07T07:33:45.246Z,94946.00
2023-04-07T07:34:45.186Z,94952.00
2023-04-07T07:35:45.281Z,94946.00
2023-04-07T07:36:45.252Z,94944.00
2023-04-07T07:37:45.270Z,94942.00
2023-04-07T07:38:45.298Z,94946.00
2023-04-07T07:39:45.302Z,94946.00
2023-04-07T07:40:45.334Z,94946.00
2023-04-07T07:41:45.327Z,94946.00
2023-04-07T07:42:45.383Z,94942.00
2023-04-07T07:43:45.602Z,94942.00
2023-04-07T07:44:45.448Z,94940.00
2023-04-07T07:45:45.492Z,94938.00
2023-04-07T07:46:45.521Z,94942.00
2023-04-07T07:47:45.624Z,94942.00
2023-04-07T07:48:45.567Z,94940.00
2023-04-07T07:49:45.625Z,94938.00
2023-04-07T07:50:45.676Z,94936.00
2023-04-07T07:51:45.703Z,94936.00
2023-04-07T07:52:45.711Z,94936.00
2023-04-07T07:53:45.882Z,94934.00
2023-04-07T07:54:45.797Z,94934.00
2023-04-07T07:55:45.819Z,94930.00
2023-04-07T07:56:45.863Z,94926.00
2023-04-07T07:57:45.890Z,94928.00
2023-04-07T07:58:45.911Z,94925.00
2023-04-07T07:59:45.956Z,94921.00
2023-04-07T08:00:46.017Z,94921.00
2023-04-07T08:01:46.107Z,94919.00
2023-04-07T08:02:46.147Z,94919.00
2023-04-07T08:03:46.259Z,94913.00
2023-04-07T08:04:46.139Z,94915.00
2023-04-07T08:05:46.166Z,94915.00
2023-04-07T08:06:46.206Z,94917.00
2023-04-07T08:07:46.256Z,94915.00
2023-04-07T08:08:46.288Z,94913.00
2023-04-07T08:09:46.310Z,94913.00
2023-04-07T08:10:46.365Z,94909.00
2023-04-07T08:11:46.427Z,94911.00
2023-04-07T08:12:46.507Z,94911.00
2023-04-07T08:13:47.087Z,94913.00
2023-04-07T08:14:46.595Z,94909.00
2023-04-07T08:15:46.601Z,94909.00
2023-04-07T08:16:46.620Z,94909.00
2023-04-07T08:17:46.694Z,94907.00
2023-04-07T08:18:46.936Z,94907.00
2023-04-07T08:19:46.767Z,94907.00
2023-04-07T08:20:46.800Z,94905.00
2023-04-07T08:21:46.788Z,94895.00
2023-04-07T08:22:46.805Z,94895.00
2023-04-07T08:23:47.216Z,94903.00
2023-04-07T08:24:46.838Z,94895.00
2023-04-07T08:25:46.922Z,94891.00
2023-04-07T08:26:46.985Z,94891.00
2023-04-07T08:27:47.003Z,94889.00
2023-04-07T08:28:47.077Z,94887.00
2023-04-07T08:29:47.083Z,94887.00
2023-04-07T08:30:47.101Z,94883.00
2023-04-07T08:31:47.134Z,94883.00
2023-04-07T08:32:47.270Z,94881.00
2023-04-07T08:33:47.659Z,94881.00
2023-04-07T08:34:47.225Z,94883.00
2023-04-07T08:35:47.284Z,94878.00
2023-04-07T08:36:47.331Z,94876.00
2023-04-07T08:37:47.342Z,94874.00
2023-04-07T08:38:47.346Z,94874.00
2023-04-07T08:39:47.424Z,94870.00
2023-04-07T08:40:47.427Z,94874.00
2023-04-07T08:41:47.439Z,94872.00
2023-04-07T08:42:47.452Z,94874.00
2023-04-07T08:43:47.687Z,94870.00
2023-04-07T08:44:47.508Z,94868.00
2023-04-07T08:45:47.538Z,94870.00
2023-04-07T08:46:47.591Z,94868.00
2023-04-07T08:47:47.652Z,94868.00
2023-04-07T08:48:47.665Z,94866.00
2023-04-07T08:49:47.668Z,94866.00
2023-04-07T08:50:47.694Z,94864.00
2023-04-07T08:51:47.761Z,94862.00
2023-04-07T08:52:47.794Z,94858.00
2023-04-07T08:53:47.975Z,94856.00
2023-04-07T08:54:48.495Z,94856.00
2023-04-07T08:55:47.973Z,94852.00
2023-04-07T08:56:47.997Z,94856.00
2023-04-07T08:57:48.060Z,94854.00
2023-04-07T08:58:48.100Z,94852.00
2023-04-07T08:59:48.190Z,94856.00
2023-04-07T09:00:48.244Z,94852.00
2023-04-07T09:01:48.277Z,94850.00
2023-04-07T09:02:48.416Z,94846.00
2023-04-07T09:03:48.911Z,94846.00
2023-04-07T09:04:48.463Z,94844.00
2023-04-07T09:05:48.519Z,94846.00
2023-04-07T09:06:48.582Z,94844.00
2023-04-07T09:07:48.646Z,94838.00
2023-04-07T09:08:48.704Z,94840.00
2023-04-07T09:09:48.725Z,94836.00
2023-04-07T09:10:48.842Z,94834.00
2023-04-07T09:11:48.846Z,94828.00
2023-04-07T09:12:48.920Z,94828.00
2023-04-07T09:13:49.197Z,94830.00
2023-04-07T09:14:49.075Z,94826.00
2023-04-07T09:15:49.151Z,94821.00
2023-04-07T09:16:49.228Z,94821.00
2023-04-07T09:17:49.287Z,94817.00
2023-04-07T09:18:49.225Z,94817.00
2023-04-07T09:19:49.300Z,94813.00
2023-04-07T09:20:49.370Z,94811.00
2023-04-07T09:21:49.422Z,94811.00
2023-04-07T09:22:49.498Z,94811.00
2023-04-07T09:23:49.827Z,94809.00
2023-04-07T09:24:49.597Z,94809.00
2023-04-07T09:25:49.642Z,94807.00
2023-04-07T09:26:49.711Z,94805.00
2023-04-07T09:27:49.750Z,94805.00
2023-04-07T09:28:49.819Z,94801.00
2023-04-07T09:29:49.851Z,94797.00
2023-04-07T09:30:49.897Z,94797.00
2023-04-07T09:31:49.960Z,94795.00
2023-04-07T09:32:50.053Z,94791.00
2023-04-07T09:33:50.237Z,94793.00
2023-04-07T09:34:50.173Z,94797.00
2023-04-07T09:35:50.233Z,94787.00
2023-04-07T09:36:50.256Z,94787.00
2023-04-07T09:37:50.325Z,94786.00
2023-04-07T09:38:50.400Z,94787.00
2023-04-07T09:39:50.538Z,94778.00
2023-04-07T09:40:50.479Z,94784.00
2023-04-07T09:41:50.566Z,94784.00
2023-04-07T09:42:50.582Z,94782.00
2023-04-07T09:43:50.834Z,94782.00
2023-04-07T09:44:50.672Z,94778.00
2023-04-07T09:45:50.807Z,94774.00
2023-04-07T09:46:50.818Z,94772.00
2023-04-07T09:47:50.887Z,94774.00
2023-04-07T09:48:50.936Z,94772.00
2023-04-07T09:49:50.986Z,94770.00
2023-04-07T09:50:51.073Z,94770.00
2023-04-07T09:51:51.121Z,94770.00
2023-04-07T09:52:51.195Z,94768.00
2023-04-07T09:53:51.745Z,94766.00
2023-04-07T09:54:51.326Z,94766.00
2023-04-07T09:55:51.351Z,94762.00
2023-04-07T09:56:51.378Z,94762.00
2023-04-07T09:57:51.456Z,94760.00
2023-04-07T09:58:51.504Z,94756.00
2023-04-07T09:59:51.527Z,94754.00
2023-04-07T10:00:51.666Z,94750.00
2023-04-07T10:01:51.843Z,94750.00
2023-04-07T10:02:51.888Z,94748.00
2023-04-07T10:03:52.237Z,94746.00
2023-04-07T10:04:51.864Z,94746.00
2023-04-07T10:05:51.937Z,94742.00
2023-04-07T10:06:51.992Z,94740.00
2023-04-07T10:07:52.043Z,94739.00
2023-04-07T10:08:52.177Z,94739.00
2023-04-07T10:09:52.170Z,94733.00
2023-04-07T10:10:52.216Z,94729.00
2023-04-07T10:11:52.328Z,94729.00
2023-04-07T10:12:52.388Z,94727.00
2023-04-07T10:13:52.416Z,94725.00
2023-04-07T10:14:52.483Z,94729.00
2023-04-07T10:15:52.540Z,94725.00
2023-04-07T10:16:52.688Z,94723.00
2023-04-07T10:17:52.745Z,94725.00
2023-04-07T10:18:52.753Z,94723.00
2023-04-07T10:19:52.800Z,94721.00
2023-04-07T10:20:52.867Z,94723.00
2023-04-07T10:21:52.915Z,94723.00
2023-04-07T10:22:52.998Z,94721.00
2023-04-07T10:23:53.027Z,94717.00
2023-04-07T10:24:53.071Z,94717.00
2023-04-07T10:25:53.145Z,94717.00
2023-04-07T10:26:53.207Z,94713.00
2023-04-07T10:27:53.251Z,94711.00
2023-04-07T10:28:53.328Z,94715.00
2023-04-07T10:29:53.385Z,94711.00
2023-04-07T10:30:53.545Z,94709.00
2023-04-07T10:31:53.499Z,94705.00
2023-04-07T10:32:53.579Z,94705.00
2023-04-07T10:33:53.608Z,94699.00
2023-04-07T10:34:53.744Z,94699.00
2023-04-07T10:35:53.728Z,94699.00
2023-04-07T10:36:53.768Z,94697.00
2023-04-07T10:37:53.864Z,94697.00
2023-04-07T10:38:53.893Z,94695.00
2023-04-07T10:39:53.924Z,94697.00
2023-04-07T10:40:54.004Z,94693.00
2023-04-07T10:41:54.029Z,94692.00
2023-04-07T10:42:54.142Z,94690.00
2023-04-07T10:43:54.166Z,94688.00
2023-04-07T10:44:54.207Z,94688.00
2023-04-07T10:45:54.343Z,94686.00
2023-04-07T10:46:54.345Z,94682.00
2023-04-07T10:47:54.465Z,94682.00
2023-04-07T10:48:54.460Z,94676.00
2023-04-07T10:49:54.539Z,94674.00
2023-04-07T10:50:54.591Z,94672.00
2023-04-07T10:51:54.649Z,94672.00
2023-04-07T10:52:54.693Z,94672.00
2023-04-07T10:53:54.777Z,94670.00
2023-04-07T10:54:54.837Z,94672.00
2023-04-07T10:55:54.885Z,94666.00
2023-04-07T10:56:54.957Z,94668.00
2023-04-07T10:57:54.960Z,94666.00
2023-04-07T10:58:55.042Z,94666.00
2023-04-07T10:59:56.266Z,94660.00
2023-04-07T11:00:55.158Z,94662.00
2023-04-07T11:01:55.269Z,94662.00
2023-04-07T11:02:55.453Z,94656.00
2023-04-07T11:03:55.335Z,94656.00
2023-04-07T11:04:55.365Z,94654.00
2023-04-07T11:05:55.426Z,94656.00
2023-04-07T11:06:55.473Z,94654.00
2023-04-07T11:07:55.598Z,94654.00
2023-04-07T11:08:55.555Z,94650.00
2023-04-07T11:09:55.629Z,94648.00
2023-04-07T11:10:55.687Z,94648.00
2023-04-07T11:11:55.761Z,94650.00
2023-04-07T11:12:55.820Z,94646.00
2023-04-07T11:13:55.840Z,94646.00
2023-04-07T11:14:55.916Z,94635.00
2023-04-07T11:15:55.962Z,94635.00
2023-04-07T11:16:55.950Z,94635.00
2023-04-07T11:17:56.116Z,94633.00
2023-04-07T11:18:56.110Z,94629.00
2023-04-07T11:19:56.153Z,94629.00
2023-04-07T11:20:56.206Z,94629.00
2023-04-07T11:21:56.294Z,94629.00
2023-04-07T11:22:56.349Z,94625.00
2023-04-07T11:23:56.383Z,94623.00
2023-04-07T11:24:56.413Z,94623.00
2023-04-07T11:25:56.498Z,94621.00
2023-04-07T11:26:56.522Z,94619.00
2023-04-07T11:27:56.609Z,94621.00
2023-04-07T11:28:56.731Z,94617.00
2023-04-07T11:29:56.716Z,94621.00
2023-04-07T11:30:56.790Z,94617.00
2023-04-07T11:31:56.816Z,94615.00
2023-04-07T11:32:56.940Z,94615.00
2023-04-07T11:33:56.905Z,94617.00
2023-04-07T11:34:56.997Z,94615.00
2023-04-07T11:35:57.197Z,94615.00
2023-04-07T11:36:57.110Z,94613.00
2023-04-07T11:37:57.488Z,94613.00
2023-04-07T11:38:57.250Z,94609.00
2023-04-07T11:39:57.275Z,94607.00
2023-04-07T11:40:57.311Z,94607.00
2023-04-07T11:41:57.402Z,94609.00
2023-04-07T11:42:57.426Z,94605.00
2023-04-07T11:43:57.478Z,94603.00
2023-04-07T11:44:57.587Z,94605.00